createdAt,value
2019-02-26T00:00:10.001Z,9.60
2019-02-26T00:02:41.804Z,10.43
2019-02-26T00:05:11.249Z,9.33
2019-02-26T00:07:40.738Z,9.25
2019-02-26T00:10:11.157Z,10.78
2019-02-26T00:12:40.650Z,11.15
2019-02-26T00:15:10.929Z,10.80
2019-02-26T00:17:41.179Z,10.32
2019-02-26T00:20:12.814Z,8.95
2019-02-26T00:22:42.811Z,9.15
2019-02-26T00:25:48.065Z,9.65
2019-02-26T00:28:19.653Z,9.30
2019-02-26T00:30:48.849Z,8.73
2019-02-26T00:33:21.496Z,8.90
2019-02-26T00:35:50.248Z,8.73
2019-02-26T00:38:19.966Z,8.25
2019-02-26T00:40:49.501Z,9.25
2019-02-26T00:43:23.334Z,8.90
2019-02-26T00:45:51.053Z,8.30
2019-02-26T00:48:21.813Z,8.23
2019-02-26T00:50:52.338Z,8.83
2019-02-26T00:53:23.643Z,8.95
2019-02-26T00:55:54.292Z,8.55
2019-02-26T00:58:25.320Z,8.43
2019-02-26T01:00:54.783Z,8.85
2019-02-26T01:03:24.296Z,9.73
2019-02-26T01:05:53.795Z,8.80
2019-02-26T01:08:23.316Z,9.25
2019-02-26T01:10:52.788Z,8.93
2019-02-26T01:13:24.847Z,9.58
2019-02-26T01:16:51.113Z,8.85
2019-02-26T01:19:20.621Z,9.35
2019-02-26T01:21:50.094Z,9.50
2019-02-26T01:24:21.303Z,9.70
2019-02-26T01:26:51.200Z,10.15
2019-02-26T01:29:22.670Z,9.98
2019-02-26T01:31:51.956Z,10.20
2019-02-26T01:34:21.700Z,9.83
2019-02-26T01:36:51.210Z,9.65
2019-02-26T01:39:22.850Z,9.78
2019-02-26T01:41:54.020Z,8.65
2019-02-26T01:44:23.137Z,8.53
2019-02-26T01:46:53.350Z,9.10
2019-02-26T01:49:25.861Z,9.53
2019-02-26T01:51:55.119Z,9.28
2019-02-26T01:54:24.618Z,9.75
2019-02-26T01:56:54.287Z,8.63
2019-02-26T01:59:23.729Z,9.60
2019-02-26T02:01:53.699Z,9.78
2019-02-26T02:04:24.400Z,9.20
2019-02-26T02:06:54.908Z,9.43
2019-02-26T02:09:25.219Z,8.88
2019-02-26T02:11:57.413Z,8.50
2019-02-26T02:14:43.659Z,9.33
2019-02-26T02:17:13.577Z,9.73
2019-02-26T02:19:43.299Z,9.40
2019-02-26T02:22:14.621Z,9.45
2019-02-26T02:24:46.185Z,9.48
2019-02-26T02:27:19.523Z,9.15
2019-02-26T02:29:48.845Z,9.93
2019-02-26T02:32:20.710Z,9.40
2019-02-26T02:34:49.192Z,10.10
2019-02-26T02:37:24.033Z,9.55
2019-02-26T02:39:50.290Z,9.95
2019-02-26T02:42:22.033Z,9.70
2019-02-26T02:44:52.770Z,10.85
2019-02-26T02:47:25.046Z,9.38
2019-02-26T02:49:53.422Z,10.60
2019-02-26T02:52:24.242Z,10.45
2019-02-26T02:54:54.693Z,10.05
2019-02-26T02:57:26.796Z,9.85
2019-02-26T02:59:56.904Z,10.48
2019-02-26T03:02:26.952Z,10.85
2019-02-26T03:04:56.398Z,10.25
2019-02-26T03:07:28.796Z,9.95
2019-02-26T03:09:58.022Z,10.95
2019-02-26T03:12:28.820Z,9.63
2019-02-26T03:14:59.856Z,10.55
2019-02-26T03:17:29.616Z,11.30
2019-02-26T03:20:01.607Z,11.57
2019-02-26T03:22:30.411Z,11.97
2019-02-26T03:25:01.919Z,11.20
2019-02-26T03:27:33.637Z,11.05
2019-02-26T03:30:02.338Z,11.80
2019-02-26T03:32:31.878Z,13.25
2019-02-26T03:35:04.412Z,11.55
2019-02-26T03:37:34.650Z,11.20
2019-02-26T03:40:06.605Z,11.57
2019-02-26T03:42:36.514Z,11.35
2019-02-26T03:45:07.015Z,9.75
2019-02-26T03:47:39.990Z,10.95
2019-02-26T03:50:09.651Z,11.75
2019-02-26T03:52:39.161Z,10.30
2019-02-26T03:55:11.495Z,11.78
2019-02-26T03:57:43.600Z,11.63
2019-02-26T04:00:14.129Z,12.40
2019-02-26T04:02:47.745Z,12.05
2019-02-26T04:05:14.739Z,12.73
2019-02-26T04:07:44.234Z,11.73
2019-02-26T04:10:13.950Z,12.20
2019-02-26T04:12:45.004Z,10.80
2019-02-26T04:15:15.355Z,12.10
2019-02-26T04:17:44.905Z,11.53
2019-02-26T04:20:15.190Z,12.55
2019-02-26T04:22:48.991Z,12.65
2019-02-26T04:25:36.588Z,12.37
2019-02-26T04:28:12.526Z,13.45
2019-02-26T04:31:31.325Z,12.10
2019-02-26T04:34:40.646Z,12.73
2019-02-26T04:37:38.553Z,11.75
2019-02-26T04:40:49.794Z,12.20
2019-02-26T04:43:57.385Z,12.13
2019-02-26T04:46:39.361Z,11.50
2019-02-26T04:49:08.111Z,13.10
2019-02-26T04:51:39.892Z,13.65
2019-02-26T04:54:08.590Z,13.90
2019-02-26T04:56:40.182Z,13.90
2019-02-26T04:59:09.823Z,13.55
2019-02-26T05:01:40.158Z,14.58
2019-02-26T05:04:09.496Z,13.70
2019-02-26T05:06:39.048Z,14.15
2019-02-26T05:09:10.489Z,14.63
2019-02-26T05:11:40.778Z,13.62
2019-02-26T05:14:11.735Z,13.40
2019-02-26T05:16:41.254Z,13.53
2019-02-26T05:19:13.734Z,13.90
2019-02-26T05:21:41.700Z,13.50
2019-02-26T05:24:13.116Z,13.50
2019-02-26T05:26:42.719Z,15.05
2019-02-26T05:29:14.947Z,14.07
2019-02-26T05:31:44.320Z,16.97
2019-02-26T05:34:15.046Z,14.63
2019-02-26T05:36:46.185Z,13.75
2019-02-26T05:39:20.422Z,17.15
2019-02-26T05:41:46.894Z,15.72
2019-02-26T05:44:16.325Z,15.65
2019-02-26T05:46:47.553Z,14.18
2019-02-26T05:49:19.373Z,15.32
2019-02-26T05:51:47.840Z,14.10
2019-02-26T05:54:18.595Z,14.78
2019-02-26T05:56:49.757Z,13.53
2019-02-26T05:59:21.811Z,14.65
2019-02-26T06:01:53.301Z,14.78
2019-02-26T06:04:21.540Z,14.00
2019-02-26T06:06:53.236Z,14.65
2019-02-26T06:09:25.269Z,14.23
2019-02-26T06:11:53.099Z,14.43
2019-02-26T06:14:24.688Z,13.90
2019-02-26T06:16:55.761Z,15.70
2019-02-26T06:19:47.891Z,15.68
2019-02-26T06:22:20.509Z,15.98
2019-02-26T06:24:48.359Z,16.35
2019-02-26T06:27:21.357Z,16.23
2019-02-26T06:29:52.820Z,16.40
2019-02-26T06:32:19.903Z,16.60
2019-02-26T06:34:49.278Z,17.75
2019-02-26T06:37:23.611Z,17.85
2019-02-26T06:39:55.674Z,19.87
2019-02-26T06:42:24.181Z,20.85
2019-02-26T06:44:53.861Z,19.98
2019-02-26T06:47:25.955Z,22.73
2019-02-26T06:49:54.293Z,21.42
2019-02-26T06:52:23.680Z,25.85
2019-02-26T06:54:55.640Z,20.75
2019-02-26T06:57:24.161Z,31.65
2019-02-26T06:59:55.704Z,31.23
2019-02-26T07:02:28.268Z,26.40
2019-02-26T07:04:55.635Z,18.57
2019-02-26T07:07:25.016Z,14.95
2019-02-26T07:09:57.457Z,13.43
2019-02-26T07:12:26.503Z,14.03
2019-02-26T07:14:57.969Z,15.80
2019-02-26T07:17:31.659Z,16.35
2019-02-26T07:20:00.150Z,13.83
2019-02-26T07:22:29.640Z,14.15
2019-02-26T07:24:58.984Z,12.98
2019-02-26T07:27:28.879Z,13.50
2019-02-26T07:29:59.506Z,14.83
2019-02-26T07:32:28.911Z,14.13
2019-02-26T07:34:58.282Z,14.60
2019-02-26T07:37:28.588Z,18.35
2019-02-26T07:39:59.104Z,16.23
2019-02-26T07:42:32.788Z,15.90
2019-02-26T07:44:59.511Z,13.10
2019-02-26T07:47:29.518Z,13.03
2019-02-26T07:50:01.750Z,13.00
2019-02-26T07:52:32.966Z,13.80
2019-02-26T07:55:03.678Z,14.07
2019-02-26T07:57:33.424Z,12.40
2019-02-26T08:00:02.858Z,11.80
2019-02-26T08:02:32.529Z,10.93
2019-02-26T08:05:03.336Z,12.03
2019-02-26T08:07:32.677Z,11.37
2019-02-26T08:10:02.092Z,11.33
2019-02-26T08:12:35.051Z,10.10
2019-02-26T08:15:05.107Z,10.43
2019-02-26T08:17:34.101Z,10.60
2019-02-26T08:20:06.843Z,10.18
2019-02-26T08:22:36.296Z,10.80
2019-02-26T08:25:05.946Z,9.87
2019-02-26T08:27:36.064Z,9.87
2019-02-26T08:30:09.900Z,10.43
2019-02-26T08:32:39.299Z,10.60
2019-02-26T08:35:08.892Z,10.40
2019-02-26T08:37:38.643Z,10.53
2019-02-26T08:40:10.173Z,10.77
2019-02-26T08:42:39.540Z,10.80
2019-02-26T08:45:15.058Z,9.90
2019-02-26T08:47:45.457Z,10.07
2019-02-26T08:50:15.275Z,9.30
2019-02-26T08:52:47.012Z,8.80
2019-02-26T08:55:18.161Z,8.40
2019-02-26T08:57:46.850Z,8.43
2019-02-26T09:00:17.549Z,8.23
2019-02-26T09:02:50.629Z,8.23
2019-02-26T09:05:18.017Z,8.60
2019-02-26T09:07:50.224Z,8.17
2019-02-26T09:10:21.231Z,9.27
2019-02-26T09:12:51.798Z,8.80
2019-02-26T09:15:21.332Z,8.50
2019-02-26T09:17:50.780Z,10.70
2019-02-26T09:20:20.367Z,7.50
2019-02-26T09:22:51.452Z,7.50
2019-02-26T09:25:23.433Z,7.63
2019-02-26T09:27:52.199Z,7.80
2019-02-26T09:30:21.624Z,7.70
2019-02-26T09:32:52.506Z,7.13
2019-02-26T09:35:26.855Z,7.10
2019-02-26T09:37:55.620Z,7.47
2019-02-26T09:40:26.586Z,7.03
2019-02-26T09:42:58.189Z,7.77
2019-02-26T09:45:29.527Z,7.30
2019-02-26T09:47:58.208Z,7.67
2019-02-26T09:50:27.796Z,7.10
2019-02-26T09:52:59.174Z,6.93
2019-02-26T09:55:28.264Z,7.20
2019-02-26T09:58:02.490Z,8.00
2019-02-26T10:00:31.759Z,7.30
2019-02-26T10:03:02.528Z,7.33
2019-02-26T10:05:32.326Z,7.47
2019-02-26T10:08:03.445Z,7.80
2019-02-26T10:10:33.857Z,7.87
2019-02-26T10:13:04.789Z,7.10
2019-02-26T10:15:35.453Z,7.63
2019-02-26T10:18:08.760Z,14.50
2019-02-26T10:20:36.761Z,11.30
2019-02-26T10:23:06.515Z,9.33
2019-02-26T10:25:38.709Z,10.30
2019-02-26T10:28:09.658Z,10.87
2019-02-26T10:30:41.023Z,10.20
2019-02-26T10:33:12.855Z,9.60
2019-02-26T10:35:45.111Z,9.00
2019-02-26T10:38:13.352Z,8.23
2019-02-26T10:40:53.332Z,8.80
2019-02-26T10:43:13.748Z,9.90
2019-02-26T10:45:44.789Z,8.93
2019-02-26T10:48:16.202Z,7.97
2019-02-26T10:50:48.534Z,8.23
2019-02-26T10:53:19.442Z,7.47
2019-02-26T10:55:47.550Z,7.83
2019-02-26T10:58:16.964Z,7.53
2019-02-26T11:00:50.088Z,7.60
2019-02-26T11:03:20.225Z,7.57
2019-02-26T11:05:52.212Z,7.67
2019-02-26T11:08:23.424Z,7.57
2019-02-26T11:10:52.613Z,7.50
2019-02-26T11:13:24.857Z,8.50
2019-02-26T11:15:56.169Z,7.73
2019-02-26T11:18:24.523Z,8.57
2019-02-26T11:20:56.172Z,8.00
2019-02-26T11:23:31.035Z,8.67
2019-02-26T11:25:56.313Z,8.60
2019-02-26T11:28:29.697Z,7.90
2019-02-26T11:30:57.062Z,8.47
2019-02-26T11:33:26.488Z,8.03
2019-02-26T11:35:55.983Z,8.00
2019-02-26T11:38:25.384Z,7.50
2019-02-26T11:40:55.180Z,8.03
2019-02-26T11:43:27.016Z,8.67
2019-02-26T11:45:58.862Z,8.83
2019-02-26T11:48:28.948Z,9.20
2019-02-26T11:51:00.847Z,9.90
2019-02-26T11:53:30.361Z,10.07
2019-02-26T11:56:01.981Z,9.90
2019-02-26T11:58:31.429Z,9.37
2019-02-26T12:01:02.590Z,10.60
2019-02-26T12:03:34.125Z,10.37
2019-02-26T12:06:03.329Z,10.10
2019-02-26T12:08:32.877Z,9.70
2019-02-26T12:11:07.113Z,10.20
2019-02-26T12:13:35.702Z,9.13
2019-02-26T12:16:05.198Z,7.70
2019-02-26T12:18:36.834Z,9.33
2019-02-26T12:21:08.028Z,8.53
2019-02-26T12:23:39.175Z,8.03
2019-02-26T12:26:08.521Z,9.00
2019-02-26T12:28:40.241Z,8.83
2019-02-26T12:31:10.956Z,8.00
2019-02-26T12:33:40.429Z,8.20
2019-02-26T12:36:10.382Z,9.13
2019-02-26T12:38:40.006Z,9.20
2019-02-26T12:41:12.290Z,7.93
2019-02-26T12:43:43.387Z,7.70
2019-02-26T12:46:11.888Z,7.80
2019-02-26T12:48:44.380Z,8.47
2019-02-26T12:51:12.588Z,7.90
2019-02-26T12:53:47.573Z,7.73
2019-02-26T12:56:16.735Z,8.47
2019-02-26T12:58:48.469Z,8.00
2019-02-26T13:01:17.598Z,8.47
2019-02-26T13:03:51.161Z,7.67
2019-02-26T13:06:22.092Z,6.80
2019-02-26T13:08:50.730Z,7.53
2019-02-26T13:11:24.162Z,10.27
2019-02-26T13:13:53.408Z,8.20
2019-02-26T13:16:23.017Z,7.40
2019-02-26T13:18:56.463Z,6.40
2019-02-26T13:21:23.577Z,6.43
2019-02-26T13:23:58.654Z,7.30
2019-02-26T13:26:24.296Z,7.10
2019-02-26T13:28:56.060Z,7.33
2019-02-26T13:31:25.196Z,6.83
2019-02-26T13:33:54.731Z,6.00
2019-02-26T13:36:24.200Z,6.43
2019-02-26T13:38:53.854Z,6.77
2019-02-26T13:41:29.970Z,6.10
2019-02-26T13:43:54.601Z,6.40
2019-02-26T13:46:24.101Z,5.93
2019-02-26T13:48:53.704Z,4.93
2019-02-26T13:51:23.180Z,5.40
2019-02-26T13:53:52.758Z,5.83
2019-02-26T13:56:22.410Z,5.77
2019-02-26T13:58:51.969Z,5.70
2019-02-26T14:01:21.635Z,6.00
2019-02-26T14:03:51.052Z,6.40
2019-02-26T14:06:20.493Z,6.17
2019-02-26T14:08:49.969Z,6.40
2019-02-26T14:11:19.596Z,6.30
2019-02-26T14:13:49.043Z,7.00
2019-02-26T14:16:18.869Z,5.90
2019-02-26T14:18:48.353Z,5.60
2019-02-26T14:21:17.827Z,6.70
2019-02-26T14:23:47.434Z,7.33
2019-02-26T14:26:17.174Z,5.97
2019-02-26T14:28:46.754Z,5.47
2019-02-26T14:31:16.301Z,5.60
2019-02-26T14:33:45.793Z,5.80
2019-02-26T14:36:15.225Z,7.00
2019-02-26T14:38:44.751Z,6.80
2019-02-26T14:41:14.176Z,6.60
2019-02-26T14:43:43.831Z,6.37
2019-02-26T14:46:13.317Z,6.87
2019-02-26T14:48:42.872Z,7.37
2019-02-26T14:51:12.394Z,6.93
2019-02-26T14:53:41.857Z,7.87
2019-02-26T14:56:11.375Z,7.70
2019-02-26T14:58:40.833Z,7.07
2019-02-26T15:01:10.411Z,7.20
2019-02-26T15:03:40.169Z,6.77
2019-02-26T15:06:09.916Z,7.40
2019-02-26T15:08:41.277Z,7.13
2019-02-26T15:12:04.007Z,7.43
2019-02-26T15:14:33.480Z,6.80
2019-02-26T15:17:02.988Z,7.50
2019-02-26T15:19:32.803Z,7.53
2019-02-26T15:22:02.285Z,7.50
2019-02-26T15:24:31.733Z,7.30
2019-02-26T15:27:01.781Z,6.93
2019-02-26T15:29:31.474Z,6.80
2019-02-26T15:32:01.142Z,7.00
2019-02-26T15:34:30.697Z,6.73
2019-02-26T15:37:00.526Z,7.33
2019-02-26T15:39:29.959Z,6.70
2019-02-26T15:41:59.894Z,6.97
2019-02-26T15:44:29.537Z,7.03
2019-02-26T15:46:59.582Z,6.53
2019-02-26T15:49:30.485Z,6.60
2019-02-26T15:51:59.985Z,7.00
2019-02-26T15:54:29.625Z,6.70
2019-02-26T15:57:00.982Z,7.50
2019-02-26T15:59:30.601Z,7.20
2019-02-26T16:02:00.276Z,7.37
2019-02-26T16:04:29.805Z,6.70
2019-02-26T16:06:59.980Z,7.33
2019-02-26T16:09:29.503Z,7.87
2019-02-26T16:11:59.145Z,6.97
2019-02-26T16:14:28.744Z,6.20
2019-02-26T16:16:58.431Z,6.70
2019-02-26T16:19:28.043Z,5.67
2019-02-26T16:21:58.021Z,5.67
2019-02-26T16:24:27.581Z,6.20
2019-02-26T16:26:57.183Z,5.80
2019-02-26T16:29:32.954Z,6.23
2019-02-26T16:32:02.639Z,6.43
2019-02-26T16:34:35.118Z,5.90
2019-02-26T16:37:07.203Z,7.30
2019-02-26T16:39:36.033Z,6.83
2019-02-26T16:42:59.284Z,6.90
2019-02-26T16:45:28.873Z,6.70
2019-02-26T16:47:58.522Z,6.20
2019-02-26T16:50:28.133Z,6.40
2019-02-26T16:52:58.009Z,6.57
2019-02-26T16:55:29.207Z,6.70
2019-02-26T16:58:02.160Z,7.03
2019-02-26T17:00:29.971Z,11.70
2019-02-26T17:03:17.457Z,41.63
2019-02-26T17:05:47.615Z,10.33
2019-02-26T17:08:18.137Z,8.00
2019-02-26T17:10:48.026Z,8.50
2019-02-26T17:13:17.477Z,7.60
2019-02-26T17:15:47.003Z,8.03
2019-02-26T17:18:16.560Z,9.33
2019-02-26T17:20:46.101Z,13.00
2019-02-26T17:23:15.738Z,9.90
2019-02-26T17:25:45.345Z,7.80
2019-02-26T17:28:32.721Z,6.80
2019-02-26T17:31:02.351Z,7.10
2019-02-26T17:33:32.018Z,7.00
2019-02-26T17:36:02.017Z,6.87
2019-02-26T17:38:34.668Z,7.00
2019-02-26T17:41:04.371Z,6.90
2019-02-26T17:43:34.067Z,7.07
2019-02-26T17:46:03.702Z,6.40
2019-02-26T17:48:43.080Z,7.17
2019-02-26T17:51:04.645Z,7.33
2019-02-26T17:53:34.294Z,7.07
2019-02-26T17:56:05.780Z,8.20
2019-02-26T17:58:35.434Z,8.27
2019-02-26T18:01:05.021Z,7.93
2019-02-26T18:03:34.725Z,7.07
2019-02-26T18:06:04.267Z,8.10
2019-02-26T18:08:33.850Z,7.80
2019-02-26T18:11:03.476Z,8.13
2019-02-26T18:13:33.061Z,8.40
2019-02-26T18:16:08.907Z,8.27
2019-02-26T18:18:34.386Z,7.00
2019-02-26T18:21:05.950Z,7.60
2019-02-26T18:23:37.726Z,8.50
2019-02-26T18:26:07.263Z,8.97
2019-02-26T18:28:36.941Z,7.93
2019-02-26T18:31:06.652Z,9.70
2019-02-26T18:33:36.322Z,11.57
2019-02-26T18:36:06.332Z,12.17
2019-02-26T18:38:36.102Z,11.73
2019-02-26T18:41:06.709Z,12.97
2019-02-26T18:44:13.280Z,12.77
2019-02-26T18:46:43.219Z,11.10
2019-02-26T18:49:30.931Z,11.93
2019-02-26T18:52:19.345Z,11.67
2019-02-26T18:54:48.940Z,12.40
2019-02-26T18:57:18.497Z,12.07
2019-02-26T19:00:25.877Z,12.40
2019-02-26T19:02:54.918Z,12.10
2019-02-26T19:05:28.737Z,12.80
2019-02-26T19:07:58.257Z,12.57
2019-02-26T19:10:46.008Z,13.80
2019-02-26T19:13:51.318Z,13.13
2019-02-26T19:16:21.248Z,14.30
2019-02-26T19:18:50.759Z,13.60
2019-02-26T19:21:21.864Z,12.77
2019-02-26T19:23:52.050Z,12.70
2019-02-26T19:26:22.241Z,15.50
2019-02-26T19:28:52.010Z,15.40
2019-02-26T19:31:23.475Z,15.40
2019-02-26T19:33:54.724Z,15.40
2019-02-26T19:36:24.241Z,15.73
2019-02-26T19:38:53.903Z,15.10
2019-02-26T19:41:23.420Z,13.57
2019-02-26T19:43:52.980Z,12.73
2019-02-26T19:46:22.568Z,12.40
2019-02-26T19:48:52.235Z,13.13
2019-02-26T19:51:22.967Z,12.90
2019-02-26T19:53:53.309Z,12.73
2019-02-26T19:56:23.719Z,13.13
2019-02-26T19:58:53.863Z,13.00
2019-02-26T20:01:25.885Z,14.53
2019-02-26T20:03:55.170Z,13.83
2019-02-26T20:06:26.783Z,14.73
2019-02-26T20:09:16.583Z,12.80
2019-02-26T20:11:46.268Z,11.80
2019-02-26T20:14:21.268Z,21.07
2019-02-26T20:16:47.236Z,20.20
2019-02-26T20:19:16.829Z,17.50
2019-02-26T20:21:46.474Z,14.70
2019-02-26T20:24:16.670Z,14.03
2019-02-26T20:26:47.606Z,17.40
2019-02-26T20:29:18.236Z,12.87
2019-02-26T20:31:47.870Z,11.30
2019-02-26T20:34:17.641Z,10.80
2019-02-26T20:36:48.823Z,13.80
2019-02-26T20:39:19.302Z,13.57
2019-02-26T20:41:49.240Z,13.20
2019-02-26T20:44:19.233Z,13.90
2019-02-26T20:46:48.778Z,15.10
2019-02-26T20:49:18.611Z,17.30
2019-02-26T20:51:48.180Z,15.40
2019-02-26T20:54:17.832Z,12.20
2019-02-26T20:56:47.523Z,13.63
2019-02-26T20:59:17.974Z,14.47
2019-02-26T21:01:49.575Z,15.15
2019-02-26T21:04:19.308Z,14.80
2019-02-26T21:06:50.836Z,14.20
2019-02-26T21:09:20.415Z,14.70
2019-02-26T21:11:49.946Z,17.15
2019-02-26T21:14:19.697Z,16.42
2019-02-26T21:16:53.499Z,15.32
2019-02-26T21:19:20.588Z,16.73
2019-02-26T21:21:50.745Z,16.23
2019-02-26T21:24:20.303Z,14.65
2019-02-26T21:26:52.650Z,13.28
2019-02-26T21:29:21.183Z,14.07
2019-02-26T21:31:52.045Z,16.80
2019-02-26T21:34:22.358Z,15.13
2019-02-26T21:36:51.925Z,15.15
2019-02-26T21:39:21.511Z,17.67
2019-02-26T21:41:55.635Z,16.93
2019-02-26T21:44:24.890Z,18.90
2019-02-26T21:46:56.196Z,17.62
2019-02-26T21:49:25.714Z,17.92
2019-02-26T21:51:55.331Z,17.35
2019-02-26T21:54:25.333Z,16.40
2019-02-26T21:56:55.391Z,16.20
2019-02-26T21:59:24.941Z,14.85
2019-02-26T22:01:55.569Z,15.00
2019-02-26T22:04:25.066Z,17.10
2019-02-26T22:06:54.742Z,17.27
2019-02-26T22:09:24.317Z,16.85
2019-02-26T22:11:53.856Z,14.75
2019-02-26T22:14:23.964Z,13.72
2019-02-26T22:16:53.842Z,13.43
2019-02-26T22:19:23.367Z,13.70
2019-02-26T22:21:52.991Z,13.20
2019-02-26T22:24:22.511Z,13.20
2019-02-26T22:26:52.059Z,12.85
2019-02-26T22:29:21.649Z,12.20
2019-02-26T22:31:51.251Z,11.63
2019-02-26T22:34:20.729Z,12.00
2019-02-26T22:36:50.293Z,11.43
2019-02-26T22:39:22.298Z,11.30
2019-02-26T22:41:51.010Z,10.75
2019-02-26T22:44:21.521Z,11.60
2019-02-26T22:46:51.678Z,12.80
2019-02-26T22:49:21.375Z,11.83
2019-02-26T22:51:50.937Z,11.40
2019-02-26T22:54:20.682Z,12.13
2019-02-26T22:56:50.180Z,11.15
2019-02-26T22:59:19.683Z,10.95
2019-02-26T23:01:49.687Z,12.15
2019-02-26T23:04:19.635Z,11.43
2019-02-26T23:06:49.943Z,12.07
2019-02-26T23:09:23.860Z,10.65
2019-02-26T23:11:53.308Z,9.93
2019-02-26T23:14:23.033Z,10.88
2019-02-26T23:16:52.684Z,12.98
2019-02-26T23:19:22.270Z,13.88
2019-02-26T23:21:53.093Z,13.28
2019-02-26T23:24:22.596Z,14.47
2019-02-26T23:26:52.253Z,14.73
2019-02-26T23:29:21.731Z,14.28
2019-02-26T23:31:51.520Z,14.30
2019-02-26T23:34:22.629Z,13.50
2019-02-26T23:36:52.343Z,12.10
2019-02-26T23:39:21.847Z,13.38
2019-02-26T23:41:51.466Z,13.18
2019-02-26T23:44:20.943Z,14.07
2019-02-26T23:46:50.408Z,14.00
2019-02-26T23:49:19.848Z,14.07
2019-02-26T23:51:50.966Z,14.38
2019-02-26T23:54:20.645Z,12.50
2019-02-26T23:56:52.025Z,13.53
2019-02-26T23:59:21.343Z,13.75
